Time;durP1;ratioP1;P1;durP2;ratioP2;P2;SDS_P1;SDS_P2;PMS_P1;PMS_P2;Temp;Humidity;BMP_temperature;BMP_pressure;BME280_temperature;BME280_humidity;BME280_pressure;Samples;Min_cycle;Max_cycle;Signal;HPM_P1;HPM_P2
2022/06/01 00:00:16;;;;;;;;;;;12.10;99.90;;;;;;4983147;28;37160;-50
2022/06/01 00:02:43;;;;;;;;;;;12.10;99.90;;;;;;4983395;28;36563;-47
2022/06/01 00:05:10;;;;;;;;;;;12.00;99.90;;;;;;4982755;28;37728;-49
2022/06/01 00:07:37;;;;;;;;;;;12.10;99.90;;;;;;4982996;28;39357;-50
2022/06/01 00:10:06;;;;;;;;;;;12.10;99.90;;;;;;4982837;28;38101;-51
2022/06/01 00:12:34;;;;;;;;;;;12.00;99.90;;;;;;4982785;28;36946;-50
2022/06/01 00:15:02;;;;;;;;;;;12.00;99.90;;;;;;4981775;28;38240;-49
2022/06/01 00:17:29;;;;;;;;;;;12.00;99.90;;;;;;4982079;28;36568;-52
2022/06/01 00:19:56;;;;;;;;;;;12.00;99.90;;;;;;4982336;28;37969;-49
2022/06/01 00:22:23;;;;;;;;;;;12.00;99.90;;;;;;4983294;28;35367;-50
2022/06/01 00:24:50;;;;;;;;;;;11.90;99.90;;;;;;4981250;28;37856;-48
2022/06/01 00:27:19;;;;;;;;;;;11.90;99.90;;;;;;4981127;28;38581;-50
2022/06/01 00:29:46;;;;;;;;;;;11.90;99.90;;;;;;4983493;28;36194;-49
2022/06/01 00:32:14;;;;;;;;;;;11.90;99.90;;;;;;4983393;28;36415;-50
2022/06/01 00:34:42;;;;;;;;;;;11.90;99.90;;;;;;4982970;28;37881;-48
2022/06/01 00:37:10;;;;;;;;;;;11.90;99.90;;;;;;4982687;28;39283;-51
2022/06/01 00:39:37;;;;;;;;;;;11.80;99.90;;;;;;4981371;28;36047;-51
2022/06/01 00:42:12;;;;;;;;;;;11.80;99.90;;;;;;4981869;28;37704;-51
2022/06/01 00:44:40;;;;;;;;;;;11.80;99.90;;;;;;4982184;28;37210;-50
2022/06/01 00:47:08;;;;;;;;;;;11.80;99.90;;;;;;4982855;28;37048;-49
2022/06/01 00:49:35;;;;;;;;;;;12.00;99.90;;;;;;4982822;28;37844;-48
2022/06/01 00:52:03;;;;;;;;;;;11.80;99.90;;;;;;4982228;28;34947;-48
2022/06/01 00:54:30;;;;;;;;;;;11.80;99.90;;;;;;4981874;28;37205;-50
2022/06/01 00:56:59;;;;;;;;;;;11.70;99.90;;;;;;4980717;28;38804;-50
2022/06/01 00:59:28;;;;;;;;;;;11.70;99.90;;;;;;4981690;28;37177;-48
2022/06/01 01:01:57;;;;;;;;;;;11.70;99.90;;;;;;4981866;28;36606;-52
2022/06/01 01:04:24;;;;;;;;;;;11.70;99.90;;;;;;4982897;28;40237;-51
2022/06/01 01:06:51;;;;;;;;;;;11.70;99.90;;;;;;4981455;28;37959;-48
2022/06/01 01:09:18;;;;;;;;;;;11.70;99.90;;;;;;4982866;28;38452;-50
2022/06/01 01:11:47;;;;;;;;;;;11.70;99.90;;;;;;4982455;28;37310;-50
2022/06/01 01:14:15;;;;;;;;;;;11.70;99.90;;;;;;4981916;28;38059;-49
2022/06/01 01:16:42;;;;;;;;;;;11.70;99.90;;;;;;4982363;28;38681;-49
2022/06/01 01:19:16;;;;;;;;;;;11.70;99.90;;;;;;4981577;28;36794;-48
2022/06/01 01:21:48;;;;;;;;;;;11.70;99.90;;;;;;4982315;28;36134;-52
2022/06/01 01:24:19;;;;;;;;;;;11.70;99.90;;;;;;4981769;28;39293;-49
2022/06/01 01:26:48;;;;;;;;;;;11.70;99.90;;;;;;4981795;28;37863;-49
2022/06/01 01:29:16;;;;;;;;;;;11.60;99.90;;;;;;4982163;28;36895;-50
2022/06/01 01:31:43;;;;;;;;;;;11.60;99.90;;;;;;4980825;28;36317;-50
2022/06/01 01:34:10;;;;;;;;;;;11.60;99.90;;;;;;4981073;28;38403;-52
2022/06/01 01:36:41;;;;;;;;;;;11.60;99.90;;;;;;4980981;28;39266;-50
2022/06/01 01:39:10;;;;;;;;;;;11.60;99.90;;;;;;4981261;28;39070;-49
2022/06/01 01:41:40;;;;;;;;;;;11.60;99.90;;;;;;4981243;28;39235;-51
2022/06/01 01:44:11;;;;;;;;;;;11.60;99.90;;;;;;4980796;28;36459;-48
2022/06/01 01:46:38;;;;;;;;;;;11.60;99.90;;;;;;4981334;28;38223;-49
2022/06/01 01:49:05;;;;;;;;;;;11.60;99.90;;;;;;4981344;28;37553;-48
2022/06/01 01:51:33;;;;;;;;;;;11.60;99.90;;;;;;4981160;28;38043;-51
2022/06/01 01:54:01;;;;;;;;;;;11.60;99.90;;;;;;4981800;28;38307;-47
2022/06/01 01:56:35;;;;;;;;;;;11.60;99.90;;;;;;4981258;28;37938;-51
2022/06/01 01:59:06;;;;;;;;;;;11.60;99.90;;;;;;4981254;28;36967;-48
2022/06/01 02:01:40;;;;;;;;;;;11.70;99.90;;;;;;4980847;28;36487;-49
2022/06/01 02:06:03;;;;;;;;;;;11.60;99.90;;;;;;4981199;28;38101;-51
2022/06/01 02:07:00;;;;;;;;;;;11.70;99.90;;;;;;4981051;28;38815;-50
2022/06/01 02:12:40;;;;;;;;;;;11.70;99.90;;;;;;4981111;28;36483;-49
2022/06/01 02:15:01;;;;;;;;;;;11.60;99.90;;;;;;4982344;28;30938;-48
2022/06/01 02:17:33;;;;;;;;;;;11.60;99.90;;;;;;4980610;28;37910;-47
2022/06/01 02:20:02;;;;;;;;;;;11.50;99.90;;;;;;4980839;28;38583;-50
2022/06/01 02:22:29;;;;;;;;;;;11.50;99.90;;;;;;4981139;28;36832;-49
2022/06/01 02:24:56;;;;;;;;;;;11.50;99.90;;;;;;4978462;28;38568;-50
2022/06/01 02:27:24;;;;;;;;;;;11.50;99.90;;;;;;4980671;28;39182;-49
2022/06/01 02:29:54;;;;;;;;;;;11.60;99.90;;;;;;4979833;28;38324;-49
2022/06/01 02:32:21;;;;;;;;;;;11.50;99.90;;;;;;4981070;28;35760;-49
2022/06/01 02:34:50;;;;;;;;;;;11.50;99.90;;;;;;4981356;28;38374;-49
2022/06/01 02:37:18;;;;;;;;;;;11.50;99.90;;;;;;4981054;28;37699;-49
2022/06/01 02:39:47;;;;;;;;;;;11.50;99.90;;;;;;4980330;28;39731;-48
2022/06/01 02:42:28;;;;;;;;;;;11.40;99.90;;;;;;4980705;28;36145;-50
2022/06/01 02:44:55;;;;;;;;;;;11.40;99.90;;;;;;4979894;28;38079;-49
2022/06/01 02:47:23;;;;;;;;;;;11.40;99.90;;;;;;4980998;28;38319;-49
2022/06/01 02:49:51;;;;;;;;;;;11.40;99.90;;;;;;4980636;28;36071;-49
2022/06/01 02:52:18;;;;;;;;;;;11.30;99.90;;;;;;4979887;28;34790;-49
2022/06/01 02:54:45;;;;;;;;;;;11.40;99.90;;;;;;4980408;28;38446;-50
2022/06/01 02:57:14;;;;;;;;;;;11.40;99.90;;;;;;4980455;28;36612;-50
2022/06/01 02:59:41;;;;;;;;;;;11.40;99.90;;;;;;4980389;28;36102;-51
2022/06/01 03:02:09;;;;;;;;;;;11.40;99.90;;;;;;4980289;28;36349;-48
2022/06/01 03:04:36;;;;;;;;;;;11.50;99.90;;;;;;4982993;28;37862;-47
2022/06/01 03:07:05;;;;;;;;;;;11.50;99.90;;;;;;4984232;28;36548;-51
2022/06/01 03:09:32;;;;;;;;;;;11.50;99.90;;;;;;4984515;28;36017;-49
2022/06/01 03:11:59;;;;;;;;;;;11.50;99.90;;;;;;4983608;28;38454;-49
2022/06/01 03:14:27;;;;;;;;;;;11.50;99.90;;;;;;4983849;28;37913;-50
2022/06/01 03:16:55;;;;;;;;;;;11.50;99.90;;;;;;4983240;28;38729;-50
2022/06/01 03:19:22;;;;;;;;;;;11.50;99.90;;;;;;4984388;28;37548;-46
2022/06/01 03:21:49;;;;;;;;;;;11.50;99.90;;;;;;4983654;28;36563;-50
2022/06/01 03:24:18;;;;;;;;;;;11.50;99.90;;;;;;4984364;28;37344;-48
2022/06/01 03:26:45;;;;;;;;;;;11.50;99.90;;;;;;4983923;28;38713;-48
2022/06/01 03:29:13;;;;;;;;;;;11.50;99.90;;;;;;4984097;28;37940;-50
2022/06/01 03:31:40;;;;;;;;;;;11.50;99.90;;;;;;4983866;28;35175;-49
2022/06/01 03:34:07;;;;;;;;;;;11.40;99.90;;;;;;4983844;28;40779;-48
2022/06/01 03:36:34;;;;;;;;;;;11.40;99.90;;;;;;4982651;28;37037;-51
2022/06/01 03:39:01;;;;;;;;;;;11.40;99.90;;;;;;4983282;28;38257;-48
2022/06/01 03:41:29;;;;;;;;;;;11.40;99.90;;;;;;4983844;28;35202;-50
2022/06/01 03:46:40;;;;;;;;;;;11.40;99.90;;;;;;4983174;28;38869;-51
2022/06/01 03:49:07;;;;;;;;;;;11.40;99.90;;;;;;4982260;28;36687;-47
2022/06/01 03:51:36;;;;;;;;;;;11.40;99.90;;;;;;4983484;28;36389;-49
2022/06/01 03:54:03;;;;;;;;;;;11.30;99.90;;;;;;4983133;28;38407;-47
2022/06/01 03:56:32;;;;;;;;;;;11.30;99.90;;;;;;4982655;28;38168;-50
2022/06/01 03:58:59;;;;;;;;;;;11.30;99.90;;;;;;4982501;28;38538;-49
2022/06/01 04:01:26;;;;;;;;;;;11.30;99.90;;;;;;4982299;28;36655;-51
2022/06/01 04:03:53;;;;;;;;;;;11.30;99.90;;;;;;4982898;28;38315;-50
2022/06/01 04:06:20;;;;;;;;;;;11.30;99.90;;;;;;4982856;28;38119;-48
2022/06/01 04:08:47;;;;;;;;;;;11.40;99.90;;;;;;4982797;28;37008;-49
2022/06/01 04:11:14;;;;;;;;;;;11.30;99.90;;;;;;4981911;28;35723;-46
2022/06/01 04:13:43;;;;;;;;;;;11.30;99.90;;;;;;4982911;28;38708;-48
2022/06/01 04:16:11;;;;;;;;;;;11.40;99.90;;;;;;4982072;28;37920;-50
2022/06/01 04:18:38;;;;;;;;;;;11.40;99.90;;;;;;4983422;28;35900;-48
2022/06/01 04:21:05;;;;;;;;;;;11.40;99.90;;;;;;4982702;28;36584;-48
2022/06/01 04:23:33;;;;;;;;;;;11.50;99.90;;;;;;4982306;28;36539;-49
2022/06/01 04:26:00;;;;;;;;;;;11.50;99.90;;;;;;4983913;28;36607;-49
2022/06/01 04:28:27;;;;;;;;;;;11.50;99.90;;;;;;4982654;28;37112;-47
2022/06/01 04:30:56;;;;;;;;;;;11.50;99.90;;;;;;4982516;28;35164;-47
2022/06/01 04:33:23;;;;;;;;;;;11.50;99.90;;;;;;4982547;28;38675;-49
2022/06/01 04:35:50;;;;;;;;;;;11.50;99.90;;;;;;4982673;28;39521;-48
2022/06/01 04:38:18;;;;;;;;;;;11.50;99.90;;;;;;4982278;28;36081;-48
2022/06/01 04:40:46;;;;;;;;;;;11.60;99.90;;;;;;4981978;28;35063;-48
2022/06/01 04:43:14;;;;;;;;;;;11.60;99.90;;;;;;4983084;28;39660;-50
2022/06/01 04:45:41;;;;;;;;;;;11.60;99.90;;;;;;4982304;28;38157;-50
2022/06/01 04:48:10;;;;;;;;;;;11.60;99.90;;;;;;4983231;28;37308;-49
2022/06/01 04:50:42;;;;;;;;;;;11.70;99.90;;;;;;4983557;28;37170;-50
2022/06/01 04:53:09;;;;;;;;;;;11.70;99.90;;;;;;4982175;28;37150;-47
2022/06/01 04:55:36;;;;;;;;;;;11.70;99.90;;;;;;4981525;28;40315;-50
2022/06/01 04:58:04;;;;;;;;;;;11.80;99.90;;;;;;4982232;28;36747;-49
2022/06/01 05:00:31;;;;;;;;;;;11.80;99.90;;;;;;4981309;28;37259;-51
2022/06/01 05:02:58;;;;;;;;;;;11.80;99.90;;;;;;4982676;28;38180;-48
2022/06/01 05:05:26;;;;;;;;;;;11.90;99.90;;;;;;4981264;28;37848;-48
2022/06/01 05:07:54;;;;;;;;;;;11.90;99.90;;;;;;4980940;28;38524;-51
2022/06/01 05:10:22;;;;;;;;;;;11.90;99.90;;;;;;4981493;28;36222;-51
2022/06/01 05:12:50;;;;;;;;;;;12.00;99.90;;;;;;4981558;28;38263;-47
2022/06/01 05:15:17;;;;;;;;;;;12.00;99.90;;;;;;4980972;28;37948;-47
2022/06/01 05:17:44;;;;;;;;;;;12.00;99.90;;;;;;4982840;28;38086;-49
2022/06/01 05:20:11;;;;;;;;;;;12.00;99.90;;;;;;4981086;28;37900;-49
2022/06/01 05:22:39;;;;;;;;;;;11.90;99.90;;;;;;4982333;28;38507;-53
2022/06/01 05:25:07;;;;;;;;;;;12.00;99.90;;;;;;4981324;28;38572;-53
2022/06/01 05:27:35;;;;;;;;;;;12.10;99.90;;;;;;4980416;28;35925;-54
2022/06/01 05:30:02;;;;;;;;;;;12.30;99.90;;;;;;4980968;28;37724;-54
2022/06/01 05:32:29;;;;;;;;;;;12.40;99.90;;;;;;4980814;28;37974;-53
2022/06/01 05:34:56;;;;;;;;;;;12.70;99.90;;;;;;4979470;28;37769;-53
2022/06/01 05:37:23;;;;;;;;;;;13.00;99.90;;;;;;4979860;28;37362;-54
2022/06/01 05:39:52;;;;;;;;;;;13.20;99.90;;;;;;4978788;28;35943;-53
2022/06/01 05:42:19;;;;;;;;;;;13.20;99.90;;;;;;4979704;28;36194;-53
2022/06/01 05:44:46;;;;;;;;;;;13.20;99.90;;;;;;4979683;28;37595;-55
2022/06/01 05:47:13;;;;;;;;;;;13.10;99.90;;;;;;4980270;28;37625;-54
2022/06/01 05:49:40;;;;;;;;;;;13.10;99.90;;;;;;4978971;28;38378;-54
2022/06/01 05:52:07;;;;;;;;;;;13.00;99.90;;;;;;4979760;28;36508;-54
2022/06/01 05:54:34;;;;;;;;;;;13.00;99.90;;;;;;4979607;28;37781;-54
2022/06/01 05:57:03;;;;;;;;;;;13.00;99.90;;;;;;4979875;28;36004;-53
2022/06/01 05:59:30;;;;;;;;;;;13.00;99.90;;;;;;4980271;28;35015;-53
2022/06/01 06:01:57;;;;;;;;;;;13.00;99.90;;;;;;4979677;28;37800;-54
2022/06/01 06:04:24;;;;;;;;;;;13.10;99.90;;;;;;4981571;28;38542;-54
2022/06/01 06:06:51;;;;;;;;;;;13.20;99.90;;;;;;4981055;28;38012;-52
2022/06/01 06:09:18;;;;;;;;;;;13.40;99.90;;;;;;4979407;28;35153;-54
2022/06/01 06:11:45;;;;;;;;;;;13.80;99.90;;;;;;4979187;28;36958;-54
2022/06/01 06:14:13;;;;;;;;;;;14.00;99.90;;;;;;4980102;28;36714;-55
2022/06/01 06:16:43;;;;;;;;;;;14.20;99.90;;;;;;4979415;28;35935;-54
2022/06/01 06:19:10;;;;;;;;;;;14.20;99.90;;;;;;4980432;28;37106;-54
2022/06/01 06:21:37;;;;;;;;;;;14.10;99.90;;;;;;4979278;28;36534;-55
2022/06/01 06:24:06;;;;;;;;;;;14.00;99.90;;;;;;4979036;28;39339;-52
2022/06/01 06:26:33;;;;;;;;;;;13.80;99.90;;;;;;4979118;28;37351;-52
2022/06/01 06:29:01;;;;;;;;;;;13.70;99.90;;;;;;4979549;28;36382;-55
2022/06/01 06:31:30;;;;;;;;;;;13.50;99.90;;;;;;4978876;28;36736;-54
2022/06/01 06:33:57;;;;;;;;;;;13.20;99.90;;;;;;4980447;28;37795;-54
2022/06/01 06:36:24;;;;;;;;;;;13.10;99.90;;;;;;4980763;28;36808;-55
2022/06/01 06:38:52;;;;;;;;;;;12.90;99.90;;;;;;4982460;28;37288;-52
2022/06/01 06:41:21;;;;;;;;;;;12.70;99.90;;;;;;4984028;28;37322;-54
2022/06/01 06:43:48;;;;;;;;;;;12.60;99.90;;;;;;4984109;28;37977;-59
2022/06/01 06:46:17;;;;;;;;;;;12.50;99.90;;;;;;4983233;28;37108;-58
2022/06/01 06:48:48;;;;;;;;;;;12.40;99.90;;;;;;4983039;28;36411;-58
2022/06/01 06:51:15;;;;;;;;;;;12.30;99.90;;;;;;4983526;28;37157;-56
2022/06/01 06:53:42;;;;;;;;;;;12.20;99.90;;;;;;4983683;28;39176;-57
2022/06/01 06:56:10;;;;;;;;;;;12.20;99.90;;;;;;4983687;28;37755;-58
2022/06/01 06:58:37;;;;;;;;;;;12.20;99.90;;;;;;4983958;28;37330;-58
2022/06/01 07:01:04;;;;;;;;;;;12.20;99.90;;;;;;4983166;28;39350;-58
2022/06/01 07:03:31;;;;;;;;;;;12.20;99.90;;;;;;4979201;28;38253;-58
2022/06/01 07:06:12;;;;;;;;;;;12.20;99.90;;;;;;4983388;28;37061;-59
2022/06/01 07:08:41;;;;;;;;;;;12.20;99.90;;;;;;4983379;28;37436;-59
2022/06/01 07:11:08;;;;;;;;;;;12.20;99.90;;;;;;4984216;28;39767;-59
2022/06/01 07:13:36;;;;;;;;;;;12.20;99.90;;;;;;4984251;28;36575;-59
2022/06/01 07:16:07;;;;;;;;;;;12.30;99.90;;;;;;4984332;28;37319;-59
2022/06/01 07:18:34;;;;;;;;;;;12.40;99.90;;;;;;4983547;28;36393;-58
2022/06/01 07:21:02;;;;;;;;;;;12.50;99.90;;;;;;4984052;28;36357;-58
2022/06/01 07:23:29;;;;;;;;;;;12.60;99.90;;;;;;4984045;28;38476;-58
2022/06/01 07:25:57;;;;;;;;;;;12.70;99.90;;;;;;4983084;28;36732;-58
2022/06/01 07:28:24;;;;;;;;;;;12.80;99.90;;;;;;4984075;28;36391;-57
2022/06/01 07:30:56;;;;;;;;;;;13.00;99.90;;;;;;4984391;28;38689;-58
2022/06/01 07:33:25;;;;;;;;;;;13.10;99.90;;;;;;4984286;28;36423;-58
2022/06/01 07:35:52;;;;;;;;;;;13.20;99.90;;;;;;4983737;28;35921;-57
2022/06/01 07:43:50;;;;;;;;;;;13.60;99.90;;;;;;4983892;28;42917;-58
2022/06/01 07:46:17;;;;;;;;;;;13.60;99.90;;;;;;4983207;28;37136;-57
2022/06/01 07:48:44;;;;;;;;;;;13.60;99.90;;;;;;4982552;28;36749;-57
2022/06/01 07:51:11;;;;;;;;;;;13.70;99.90;;;;;;4982146;28;38963;-58
2022/06/01 07:53:39;;;;;;;;;;;13.80;99.90;;;;;;4983134;28;37578;-57
2022/06/01 07:56:06;;;;;;;;;;;13.80;99.90;;;;;;4983089;28;37099;-57
2022/06/01 07:58:34;;;;;;;;;;;13.80;99.90;;;;;;4983402;28;36448;-57
2022/06/01 08:01:01;;;;;;;;;;;13.80;99.90;;;;;;4982783;28;36450;-57
2022/06/01 08:03:28;;;;;;;;;;;13.90;99.90;;;;;;4982213;28;38179;-57
2022/06/01 08:05:55;;;;;;;;;;;14.00;99.90;;;;;;4982637;28;36107;-58
2022/06/01 08:08:23;;;;;;;;;;;14.10;99.90;;;;;;4981594;28;36858;-57
2022/06/01 08:10:51;;;;;;;;;;;14.20;99.90;;;;;;4980021;28;38503;-57
2022/06/01 08:13:17;;;;;;;;;;;14.20;99.90;;;;;;4983158;28;38216;-57
2022/06/01 08:15:45;;;;;;;;;;;14.20;99.90;;;;;;4981933;28;37100;-57
2022/06/01 08:18:15;;;;;;;;;;;14.20;99.90;;;;;;4982478;28;36628;-57
2022/06/01 08:20:43;;;;;;;;;;;14.30;99.90;;;;;;4982958;28;40290;-58
2022/06/01 08:23:11;;;;;;;;;;;14.40;99.90;;;;;;4980488;28;38401;-57
2022/06/01 08:25:38;;;;;;;;;;;14.50;99.90;;;;;;4985213;28;37033;-57
2022/06/01 08:28:08;;;;;;;;;;;14.70;99.90;;;;;;4985037;28;37896;-57
2022/06/01 08:30:36;;;;;;;;;;;14.80;99.90;;;;;;4985818;28;37904;-57
2022/06/01 08:33:03;;;;;;;;;;;14.80;99.90;;;;;;4985205;28;38589;-58
2022/06/01 08:35:32;;;;;;;;;;;14.70;99.90;;;;;;4985276;28;37671;-58
2022/06/01 08:38:00;;;;;;;;;;;14.60;99.90;;;;;;4985005;28;37501;-57
2022/06/01 08:40:28;;;;;;;;;;;14.50;99.90;;;;;;4984993;28;38526;-58
2022/06/01 08:42:59;;;;;;;;;;;14.40;99.90;;;;;;4984178;28;37130;-57
2022/06/01 08:45:28;;;;;;;;;;;14.30;99.90;;;;;;4983950;28;36951;-57
2022/06/01 08:47:55;;;;;;;;;;;14.30;99.90;;;;;;4984110;28;36952;-57
2022/06/01 08:50:25;;;;;;;;;;;14.30;99.90;;;;;;4984705;28;39303;-57
2022/06/01 08:52:53;;;;;;;;;;;14.30;99.90;;;;;;4984466;28;38614;-57
2022/06/01 08:55:20;;;;;;;;;;;14.30;99.90;;;;;;4984307;28;38541;-57
2022/06/01 08:57:52;;;;;;;;;;;14.40;99.90;;;;;;4983533;28;35067;-57
2022/06/01 09:00:20;;;;;;;;;;;14.40;99.90;;;;;;4985003;28;37445;-56
2022/06/01 09:02:54;;;;;;;;;;;14.60;99.90;;;;;;4984309;28;39340;-57
2022/06/01 09:05:24;;;;;;;;;;;14.70;99.90;;;;;;4985090;28;37928;-56
2022/06/01 09:07:53;;;;;;;;;;;15.00;99.90;;;;;;4984866;28;36838;-56
2022/06/01 09:10:34;;;;;;;;;;;15.20;99.90;;;;;;4984851;28;38432;-56
2022/06/01 09:13:02;;;;;;;;;;;15.40;99.90;;;;;;4984239;28;38759;-57
2022/06/01 09:15:30;;;;;;;;;;;15.60;99.90;;;;;;4984476;28;38571;-57
2022/06/01 09:18:01;;;;;;;;;;;15.70;99.90;;;;;;4983749;28;36217;-57
2022/06/01 09:23:14;;;;;;;;;;;15.90;99.90;;;;;;4984680;28;38808;-57
2022/06/01 09:25:50;;;;;;;;;;;15.80;99.90;;;;;;4983840;28;38667;-57
2022/06/01 09:28:19;;;;;;;;;;;15.70;99.90;;;;;;4984379;28;37884;-57
2022/06/01 09:30:50;;;;;;;;;;;15.50;99.90;;;;;;4983970;28;39373;-58
2022/06/01 09:33:23;;;;;;;;;;;15.40;99.90;;;;;;4982199;28;38366;-58
2022/06/01 09:35:59;;;;;;;;;;;15.20;99.90;;;;;;4982993;28;37036;-58
2022/06/01 09:38:35;;;;;;;;;;;15.10;99.90;;;;;;4983730;28;35730;-58
2022/06/01 09:41:02;;;;;;;;;;;14.90;99.90;;;;;;4982516;28;36596;-57
2022/06/01 09:43:29;;;;;;;;;;;14.80;99.90;;;;;;4983868;28;40610;-58
2022/06/01 09:45:57;;;;;;;;;;;14.60;99.90;;;;;;4983798;28;37064;-58
2022/06/01 09:48:27;;;;;;;;;;;14.60;99.90;;;;;;4983912;28;35053;-58
2022/06/01 09:51:03;;;;;;;;;;;14.40;99.90;;;;;;4984238;28;38026;-58
2022/06/01 09:53:33;;;;;;;;;;;14.40;99.90;;;;;;4983581;28;36644;-58
2022/06/01 09:56:02;;;;;;;;;;;14.50;99.90;;;;;;4983768;28;38941;-57
2022/06/01 10:06:52;;;;;;;;;;;15.20;99.90;;;;;;4983663;28;37335;-58
2022/06/01 10:09:21;;;;;;;;;;;15.60;99.90;;;;;;4983617;28;38099;-58
2022/06/01 10:11:51;;;;;;;;;;;15.90;99.90;;;;;;4983268;28;38405;-58
2022/06/01 10:14:20;;;;;;;;;;;16.10;99.90;;;;;;4982232;28;37212;-57
2022/06/01 10:16:51;;;;;;;;;;;16.30;99.90;;;;;;4983905;28;36074;-59
2022/06/01 10:19:22;;;;;;;;;;;16.30;99.90;;;;;;4983268;28;38962;-59
2022/06/01 10:21:51;;;;;;;;;;;16.10;98.50;;;;;;4983052;28;37491;-58
2022/06/01 10:24:21;;;;;;;;;;;15.90;97.90;;;;;;4981231;28;36533;-57
2022/06/01 10:26:50;;;;;;;;;;;15.80;98.60;;;;;;4981782;28;37007;-60
2022/06/01 10:29:19;;;;;;;;;;;15.90;98.60;;;;;;4983626;28;36917;-59
2022/06/01 10:31:48;;;;;;;;;;;16.10;99.10;;;;;;4983661;28;38777;-59
2022/06/01 10:34:18;;;;;;;;;;;16.10;98.00;;;;;;4983577;28;38881;-59
2022/06/01 10:36:49;;;;;;;;;;;16.10;99.00;;;;;;4982910;28;35921;-58
2022/06/01 10:39:19;;;;;;;;;;;16.00;97.60;;;;;;4983493;28;34924;-58
2022/06/01 10:41:48;;;;;;;;;;;15.90;98.00;;;;;;4982848;28;37525;-58
2022/06/01 10:44:17;;;;;;;;;;;15.80;97.90;;;;;;4982145;28;39229;-58
2022/06/01 10:46:47;;;;;;;;;;;15.60;98.40;;;;;;4982798;28;35865;-58
2022/06/01 10:49:18;;;;;;;;;;;15.50;98.20;;;;;;4982882;28;36057;-58
2022/06/01 10:51:57;;;;;;;;;;;15.30;99.50;;;;;;4982385;28;39336;-58
2022/06/01 10:54:29;;;;;;;;;;;15.20;99.40;;;;;;4981749;28;39318;-59
2022/06/01 10:56:56;;;;;;;;;;;15.00;99.90;;;;;;4983713;28;36469;-58
2022/06/01 10:59:25;;;;;;;;;;;14.90;99.90;;;;;;4982800;28;38206;-58
2022/06/01 11:02:01;;;;;;;;;;;14.70;99.90;;;;;;4983140;28;37608;-58
2022/06/01 11:04:43;;;;;;;;;;;14.60;99.90;;;;;;4982200;28;37814;-58
2022/06/01 11:07:23;;;;;;;;;;;14.50;99.90;;;;;;4980277;28;38335;-58
2022/06/01 11:09:56;;;;;;;;;;;14.30;99.90;;;;;;4981870;28;37074;-58
2022/06/01 11:12:29;;;;;;;;;;;14.20;99.90;;;;;;4982998;28;36236;-59
2022/06/01 11:15:03;;;;;;;;;;;14.20;99.90;;;;;;4982710;28;37642;-59
2022/06/01 11:17:33;;;;;;;;;;;14.30;99.90;;;;;;4982486;28;36235;-58
2022/06/01 11:20:05;;;;;;;;;;;14.50;99.90;;;;;;4980883;28;37071;-57
2022/06/01 11:22:44;;;;;;;;;;;14.70;99.90;;;;;;4983487;28;38283;-57
2022/06/01 11:25:15;;;;;;;;;;;14.90;99.90;;;;;;4984644;28;38602;-58
2022/06/01 11:27:47;;;;;;;;;;;15.00;99.90;;;;;;4985970;28;35159;-58
2022/06/01 11:30:18;;;;;;;;;;;15.00;99.90;;;;;;4986360;28;36203;-57
2022/06/01 11:32:48;;;;;;;;;;;15.10;99.90;;;;;;4986375;28;38685;-57
2022/06/01 11:35:19;;;;;;;;;;;15.10;99.90;;;;;;4986464;28;38161;-57
2022/06/01 11:37:50;;;;;;;;;;;15.10;99.90;;;;;;4985821;28;37052;-57
2022/06/01 11:40:19;;;;;;;;;;;15.10;99.90;;;;;;4984085;28;35201;-57
2022/06/01 11:42:48;;;;;;;;;;;15.00;99.90;;;;;;4984869;28;39086;-57
2022/06/01 11:45:17;;;;;;;;;;;15.00;99.90;;;;;;4985690;28;37912;-57
2022/06/01 11:47:46;;;;;;;;;;;15.00;99.90;;;;;;4985673;28;38180;-56
2022/06/01 11:50:17;;;;;;;;;;;15.10;99.90;;;;;;4985538;28;37379;-56
2022/06/01 11:52:46;;;;;;;;;;;15.20;99.90;;;;;;4984687;28;39319;-58
2022/06/01 11:55:23;;;;;;;;;;;15.30;99.90;;;;;;4985638;28;37439;-57
2022/06/01 11:57:54;;;;;;;;;;;15.30;99.90;;;;;;4984823;28;37116;-57
2022/06/01 12:00:26;;;;;;;;;;;15.30;99.90;;;;;;4984164;28;35830;-57
2022/06/01 12:03:01;;;;;;;;;;;15.40;99.90;;;;;;4979581;28;36975;-58
2022/06/01 12:05:31;;;;;;;;;;;15.50;99.90;;;;;;4980532;28;38185;-57
2022/06/01 12:08:01;;;;;;;;;;;15.50;99.90;;;;;;4982383;28;37894;-58
2022/06/01 12:10:30;;;;;;;;;;;15.50;99.90;;;;;;4981290;28;37501;-57
2022/06/01 12:13:00;;;;;;;;;;;15.50;99.90;;;;;;4980675;28;37460;-57
2022/06/01 12:15:32;;;;;;;;;;;15.50;99.90;;;;;;4981383;28;38799;-57
2022/06/01 12:18:17;;;;;;;;;;;15.40;99.90;;;;;;4981763;28;38046;-57
2022/06/01 12:20:47;;;;;;;;;;;15.30;99.90;;;;;;4980993;28;35054;-57
2022/06/01 12:29:30;;;;;;;;;;;15.00;99.90;;;;;;4981417;28;38046;-57
2022/06/01 12:32:08;;;;;;;;;;;15.00;99.90;;;;;;4983683;28;36102;-56
2022/06/01 12:34:39;;;;;;;;;;;14.90;99.90;;;;;;4980983;28;39181;-56
2022/06/01 12:37:08;;;;;;;;;;;14.80;99.90;;;;;;4981736;28;38106;-56
2022/06/01 12:39:41;;;;;;;;;;;14.70;99.90;;;;;;4981675;28;37805;-56
2022/06/01 12:42:12;;;;;;;;;;;14.70;99.90;;;;;;4980140;28;35026;-57
2022/06/01 12:44:40;;;;;;;;;;;14.60;99.90;;;;;;4982103;28;37920;-57
2022/06/01 12:47:07;;;;;;;;;;;14.60;99.90;;;;;;4982948;28;38709;-56
2022/06/01 12:49:36;;;;;;;;;;;14.50;99.90;;;;;;4982965;28;37942;-57
2022/06/01 12:52:05;;;;;;;;;;;14.40;99.90;;;;;;4983055;28;36181;-57
2022/06/01 12:54:33;;;;;;;;;;;14.30;99.90;;;;;;4978817;28;37534;-57
2022/06/01 12:57:00;;;;;;;;;;;14.20;99.90;;;;;;4980984;28;36692;-57
2022/06/01 12:59:32;;;;;;;;;;;14.20;99.90;;;;;;4981645;28;38584;-57
2022/06/01 13:02:00;;;;;;;;;;;14.10;99.90;;;;;;4981919;28;35692;-56
2022/06/01 13:04:28;;;;;;;;;;;14.00;99.90;;;;;;4981240;28;37222;-56
2022/06/01 13:06:55;;;;;;;;;;;14.00;99.90;;;;;;4979597;28;39771;-56
2022/06/01 13:09:24;;;;;;;;;;;13.90;99.90;;;;;;4979440;28;38654;-56
2022/06/01 13:11:57;;;;;;;;;;;13.90;99.90;;;;;;4980668;28;34884;-56
2022/06/01 13:14:26;;;;;;;;;;;13.80;99.90;;;;;;4980423;28;37850;-56
2022/06/01 13:16:59;;;;;;;;;;;13.80;99.90;;;;;;4981137;28;38594;-56
2022/06/01 13:19:27;;;;;;;;;;;13.80;99.90;;;;;;4978570;28;35889;-56
2022/06/01 13:21:55;;;;;;;;;;;13.80;99.90;;;;;;4981075;28;35175;-56
2022/06/01 13:24:23;;;;;;;;;;;13.80;99.90;;;;;;4978803;28;36426;-56
2022/06/01 13:26:51;;;;;;;;;;;13.90;99.90;;;;;;4980138;28;37229;-55
2022/06/01 13:29:20;;;;;;;;;;;13.90;99.90;;;;;;4981024;28;37152;-57
2022/06/01 13:31:48;;;;;;;;;;;14.00;99.90;;;;;;4979548;28;36451;-55
2022/06/01 13:34:21;;;;;;;;;;;14.00;99.90;;;;;;4978151;28;37521;-56
2022/06/01 13:36:49;;;;;;;;;;;14.10;99.90;;;;;;4980431;28;39642;-56
2022/06/01 13:39:16;;;;;;;;;;;14.20;99.90;;;;;;4980022;28;38822;-56
2022/06/01 13:41:52;;;;;;;;;;;14.40;99.90;;;;;;4979814;28;36283;-57
2022/06/01 13:44:34;;;;;;;;;;;14.50;99.90;;;;;;4980695;28;40337;-56
2022/06/01 13:47:02;;;;;;;;;;;14.70;99.90;;;;;;4979637;28;38004;-50
2022/06/01 13:49:30;;;;;;;;;;;14.80;99.90;;;;;;4981334;28;37394;-48
2022/06/01 13:51:59;;;;;;;;;;;14.90;99.90;;;;;;4981890;28;35080;-50
2022/06/01 13:54:30;;;;;;;;;;;15.00;99.90;;;;;;4979135;28;37356;-50
2022/06/01 13:57:01;;;;;;;;;;;15.00;99.90;;;;;;4981759;28;37752;-50
2022/06/01 13:59:30;;;;;;;;;;;15.00;99.90;;;;;;4980219;28;38127;-51
2022/06/01 14:01:59;;;;;;;;;;;15.10;99.90;;;;;;4980855;28;36634;-51
2022/06/01 14:04:30;;;;;;;;;;;15.10;99.90;;;;;;4981023;28;38662;-49
2022/06/01 14:07:04;;;;;;;;;;;15.20;99.90;;;;;;4980572;28;38447;-50
2022/06/01 14:09:32;;;;;;;;;;;15.20;99.90;;;;;;4981362;28;38475;-46
2022/06/01 14:12:00;;;;;;;;;;;15.30;99.90;;;;;;4981713;28;37056;-55
2022/06/01 14:14:29;;;;;;;;;;;15.20;99.90;;;;;;4980366;28;38003;-56
2022/06/01 14:16:58;;;;;;;;;;;15.20;99.90;;;;;;4980689;28;38619;-56
2022/06/01 14:19:25;;;;;;;;;;;15.20;99.90;;;;;;4981702;28;39822;-56
2022/06/01 14:21:52;;;;;;;;;;;15.20;99.90;;;;;;4981924;28;36771;-52
2022/06/01 14:24:22;;;;;;;;;;;15.30;99.90;;;;;;4982274;28;36546;-51
2022/06/01 14:29:34;;;;;;;;;;;15.30;99.90;;;;;;4983285;28;39467;-51
2022/06/01 14:32:01;;;;;;;;;;;15.30;99.90;;;;;;4981194;28;34929;-52
2022/06/01 14:34:28;;;;;;;;;;;15.20;99.90;;;;;;4979756;28;37224;-57
2022/06/01 14:36:58;;;;;;;;;;;15.20;99.90;;;;;;4981744;28;38594;-57
2022/06/01 14:39:26;;;;;;;;;;;15.10;99.90;;;;;;4979819;28;37636;-57
2022/06/01 14:41:54;;;;;;;;;;;15.10;99.90;;;;;;4979382;28;35869;-56
2022/06/01 14:44:22;;;;;;;;;;;15.10;99.90;;;;;;4979453;28;39155;-57
2022/06/01 14:46:49;;;;;;;;;;;15.20;99.90;;;;;;4979969;28;37711;-56
2022/06/01 14:49:18;;;;;;;;;;;15.10;99.90;;;;;;4977921;28;35921;-57
2022/06/01 14:51:48;;;;;;;;;;;15.10;99.90;;;;;;4979200;28;35902;-57
2022/06/01 14:54:16;;;;;;;;;;;15.10;99.90;;;;;;4979894;28;37637;-57
2022/06/01 14:56:44;;;;;;;;;;;15.00;99.90;;;;;;4979079;28;37628;-57